createdAt,value
2022-07-29T00:00:13.055Z,48.95
2022-07-29T00:02:14.830Z,49.30
2022-07-29T00:04:16.866Z,49.16
2022-07-29T00:06:18.977Z,49.29
2022-07-29T00:08:21.184Z,49.35
2022-07-29T00:10:22.958Z,49.24
2022-07-29T00:12:26.694Z,49.62
2022-07-29T00:14:29.303Z,49.42
2022-07-29T00:16:31.138Z,49.69
2022-07-29T00:18:33.355Z,49.71
2022-07-29T00:20:35.068Z,49.96
2022-07-29T00:22:39.565Z,49.92
2022-07-29T00:24:41.242Z,50.12
2022-07-29T00:26:42.910Z,50.18
2022-07-29T00:28:44.696Z,50.33
2022-07-29T00:30:46.373Z,50.39
2022-07-29T00:32:48.042Z,50.62
2022-07-29T00:35:08.227Z,50.79
2022-07-29T00:37:09.910Z,51.11
2022-07-29T00:39:11.595Z,50.99
2022-07-29T00:41:13.694Z,51.06
2022-07-29T00:43:16.110Z,51.64
2022-07-29T00:45:18.695Z,51.81
2022-07-29T00:47:21.316Z,51.30
2022-07-29T00:49:23.096Z,51.64
2022-07-29T00:51:27.342Z,51.51
2022-07-29T00:53:29.388Z,51.68
2022-07-29T00:55:31.487Z,51.80
2022-07-29T00:57:34.172Z,51.90
2022-07-29T00:59:36.271Z,51.77
2022-07-29T01:01:38.027Z,51.74
2022-07-29T01:03:39.698Z,51.78
2022-07-29T01:05:50.711Z,52.18
2022-07-29T01:08:00.611Z,52.18
2022-07-29T01:10:05.707Z,52.00
2022-07-29T01:12:08.703Z,52.15
2022-07-29T01:14:11.085Z,52.06
2022-07-29T01:16:22.247Z,52.19
2022-07-29T01:18:35.105Z,52.22
2022-07-29T01:20:39.754Z,52.28
2022-07-29T01:23:22.795Z,52.35
2022-07-29T01:25:53.153Z,52.37
2022-07-29T01:28:00.736Z,52.46
2022-07-29T01:30:05.206Z,52.47
2022-07-29T01:32:27.730Z,52.39
2022-07-29T01:34:49.721Z,52.60
2022-07-29T01:37:01.100Z,52.65
2022-07-29T01:39:06.713Z,52.47
2022-07-29T01:41:15.690Z,52.68
2022-07-29T01:43:24.664Z,53.17
2022-07-29T01:45:52.591Z,53.06
2022-07-29T01:48:05.840Z,52.79
2022-07-29T01:50:12.968Z,53.11
2022-07-29T01:52:22.949Z,52.76
2022-07-29T01:54:38.849Z,53.13
2022-07-29T01:56:43.934Z,53.11
2022-07-29T01:58:47.467Z,53.19
2022-07-29T02:00:51.123Z,53.33
2022-07-29T02:02:55.414Z,53.20
2022-07-29T02:04:58.303Z,53.21
2022-07-29T02:07:04.726Z,53.18
2022-07-29T02:09:08.272Z,53.21
2022-07-29T02:11:10.391Z,53.21
2022-07-29T02:13:14.120Z,53.23
2022-07-29T02:15:17.820Z,53.62
2022-07-29T02:17:32.322Z,53.63
2022-07-29T02:19:35.306Z,53.77
2022-07-29T02:21:37.817Z,53.66
2022-07-29T02:23:50.513Z,53.85
2022-07-29T02:25:57.118Z,53.69
2022-07-29T02:28:01.905Z,53.97
2022-07-29T02:30:04.802Z,54.15
2022-07-29T02:32:09.537Z,54.08
2022-07-29T02:34:13.185Z,54.04
2022-07-29T02:36:17.117Z,54.17
2022-07-29T02:38:39.804Z,54.26
2022-07-29T02:40:44.769Z,54.13
2022-07-29T02:42:48.187Z,54.40
2022-07-29T02:44:50.399Z,54.67
2022-07-29T02:46:57.206Z,54.85
2022-07-29T02:49:08.116Z,54.53
2022-07-29T02:51:43.538Z,54.85
2022-07-29T02:53:55.353Z,54.93
2022-07-29T02:56:05.512Z,54.99
2022-07-29T02:58:16.799Z,55.29
2022-07-29T03:00:19.102Z,55.04
2022-07-29T03:02:22.250Z,55.24
2022-07-29T03:04:27.183Z,54.97
2022-07-29T03:06:37.986Z,55.06
2022-07-29T03:08:41.329Z,54.98
2022-07-29T03:10:46.695Z,55.01
2022-07-29T03:12:49.552Z,54.80
2022-07-29T03:14:51.971Z,55.09
2022-07-29T03:16:54.295Z,55.06
2022-07-29T03:18:56.686Z,55.15
2022-07-29T03:20:58.931Z,54.92
2022-07-29T03:23:00.701Z,55.18
2022-07-29T03:25:09.808Z,54.72
2022-07-29T03:27:11.680Z,55.01
2022-07-29T03:29:13.531Z,54.75
2022-07-29T03:31:15.917Z,55.08
2022-07-29T03:33:17.799Z,54.98
2022-07-29T03:35:22.108Z,55.04
2022-07-29T03:37:23.820Z,54.87
2022-07-29T03:39:30.786Z,55.12
2022-07-29T03:41:33.789Z,55.32
2022-07-29T03:43:38.720Z,55.08
2022-07-29T03:45:54.578Z,55.09
2022-07-29T03:48:02.272Z,55.36
2022-07-29T03:50:10.787Z,55.36
2022-07-29T03:52:12.681Z,55.50
2022-07-29T03:54:15.147Z,55.53
2022-07-29T03:56:21.065Z,55.70
2022-07-29T03:58:24.386Z,55.66
2022-07-29T04:00:28.032Z,55.77
2022-07-29T04:02:30.845Z,55.73
2022-07-29T04:04:36.468Z,56.18
2022-07-29T04:06:42.317Z,55.98
2022-07-29T04:08:44.273Z,56.06
2022-07-29T04:10:46.163Z,56.11
2022-07-29T04:12:48.085Z,56.20
2022-07-29T04:14:51.316Z,56.28
2022-07-29T04:16:54.133Z,56.27
2022-07-29T04:18:56.012Z,56.08
2022-07-29T04:21:00.230Z,56.56
2022-07-29T04:23:02.063Z,56.38
2022-07-29T04:25:04.670Z,56.02
2022-07-29T04:27:06.640Z,56.31
2022-07-29T04:29:08.656Z,56.38
2022-07-29T04:31:11.469Z,56.34
2022-07-29T04:33:13.404Z,56.18
2022-07-29T04:35:15.217Z,56.27
2022-07-29T04:37:17.113Z,56.38
2022-07-29T04:39:23.043Z,56.38
2022-07-29T04:41:32.553Z,56.34
2022-07-29T04:43:36.957Z,56.22
2022-07-29T04:45:39.423Z,56.26
2022-07-29T04:47:42.020Z,56.48
2022-07-29T04:49:43.987Z,56.64
2022-07-29T04:51:45.777Z,56.63
2022-07-29T04:53:58.650Z,56.99
2022-07-29T04:56:00.524Z,56.91
2022-07-29T04:58:02.406Z,56.97
2022-07-29T05:00:06.307Z,56.94
2022-07-29T05:02:08.616Z,57.07
2022-07-29T05:04:10.450Z,56.70
2022-07-29T05:06:12.453Z,56.79
2022-07-29T05:08:14.311Z,56.76
2022-07-29T05:10:15.993Z,57.02
2022-07-29T05:12:17.730Z,56.85
2022-07-29T05:14:20.175Z,56.89
2022-07-29T05:16:22.777Z,56.89
2022-07-29T05:18:26.038Z,57.05
2022-07-29T05:20:29.902Z,56.98
2022-07-29T05:22:31.619Z,56.94
2022-07-29T05:24:33.459Z,57.15
2022-07-29T05:26:35.376Z,57.39
2022-07-29T05:28:37.093Z,57.46
2022-07-29T05:30:39.050Z,57.58
2022-07-29T05:32:41.060Z,57.48
2022-07-29T05:34:51.354Z,57.53
2022-07-29T05:36:53.556Z,57.31
2022-07-29T05:38:55.243Z,57.38
2022-07-29T05:40:59.677Z,57.50
2022-07-29T05:43:01.895Z,57.34
2022-07-29T05:45:04.504Z,57.55
2022-07-29T05:47:07.512Z,57.18
2022-07-29T05:49:10.227Z,57.24
2022-07-29T05:51:28.500Z,57.18
2022-07-29T05:53:30.223Z,57.32
2022-07-29T05:55:32.169Z,57.43
2022-07-29T05:57:34.209Z,57.22
2022-07-29T05:59:39.092Z,57.23
2022-07-29T06:01:41.174Z,57.34
2022-07-29T06:03:43.140Z,57.45
2022-07-29T06:05:44.890Z,57.34
2022-07-29T06:07:50.650Z,57.29
2022-07-29T06:09:53.571Z,57.49
2022-07-29T06:11:55.393Z,57.42
2022-07-29T06:13:58.419Z,57.30
2022-07-29T06:16:00.288Z,57.60
2022-07-29T06:18:02.611Z,57.22
2022-07-29T06:20:05.057Z,57.27
2022-07-29T06:22:06.921Z,57.35
2022-07-29T06:24:08.679Z,57.02
2022-07-29T06:26:10.534Z,57.25
2022-07-29T06:28:13.165Z,57.23
2022-07-29T06:30:15.208Z,57.25
2022-07-29T06:32:16.929Z,57.30
2022-07-29T06:34:19.256Z,57.41
2022-07-29T06:36:22.949Z,57.36
2022-07-29T06:38:31.140Z,57.45
2022-07-29T06:40:52.829Z,57.47
2022-07-29T06:42:54.943Z,57.30
2022-07-29T06:44:58.130Z,57.23
2022-07-29T06:47:00.876Z,57.47
2022-07-29T06:49:03.636Z,57.22
2022-07-29T06:51:07.134Z,57.23
2022-07-29T06:53:08.917Z,57.25
2022-07-29T06:55:11.035Z,57.11
2022-07-29T06:57:27.402Z,56.79
2022-07-29T06:59:35.109Z,56.73
2022-07-29T07:01:39.219Z,56.72
2022-07-29T07:03:41.155Z,56.92
2022-07-29T07:05:43.097Z,57.07
2022-07-29T07:07:44.809Z,57.13
2022-07-29T07:09:46.508Z,57.12
2022-07-29T07:11:49.510Z,57.12
2022-07-29T07:14:00.786Z,57.14
2022-07-29T07:16:05.787Z,57.37
2022-07-29T07:18:07.805Z,57.11
2022-07-29T07:20:09.977Z,57.15
2022-07-29T07:22:11.719Z,56.91
2022-07-29T07:24:14.090Z,56.82
2022-07-29T07:26:16.637Z,56.94
2022-07-29T07:28:18.353Z,56.75
2022-07-29T07:30:26.708Z,56.79
2022-07-29T07:32:28.448Z,56.68
2022-07-29T07:34:31.619Z,56.49
2022-07-29T07:36:33.856Z,56.60
2022-07-29T07:38:36.878Z,56.59
2022-07-29T07:40:38.664Z,56.57
2022-07-29T07:42:41.802Z,56.50
2022-07-29T07:45:12.211Z,56.22
2022-07-29T07:47:08.613Z,56.34
2022-07-29T07:49:14.270Z,56.45
2022-07-29T07:51:16.149Z,56.49
2022-07-29T07:53:18.059Z,56.39
2022-07-29T07:55:20.893Z,56.65
2022-07-29T07:57:22.628Z,56.13
2022-07-29T07:59:24.586Z,55.93
2022-07-29T08:01:26.353Z,55.61
2022-07-29T08:03:28.336Z,54.96
2022-07-29T08:05:30.392Z,54.36
2022-07-29T08:07:35.631Z,52.93
2022-07-29T08:09:37.535Z,51.00
2022-07-29T08:11:39.525Z,50.78
2022-07-29T08:13:57.586Z,50.08
2022-07-29T08:16:02.158Z,50.18
2022-07-29T08:18:08.687Z,49.00
2022-07-29T08:20:11.354Z,49.49
2022-07-29T08:22:13.205Z,49.87
2022-07-29T08:24:33.592Z,49.02
2022-07-29T08:26:35.510Z,49.13
2022-07-29T08:28:39.582Z,48.32
2022-07-29T08:30:42.060Z,47.36
2022-07-29T08:32:53.784Z,47.46
2022-07-29T08:34:56.694Z,47.88
2022-07-29T08:36:58.579Z,48.17
2022-07-29T08:39:01.268Z,48.17
2022-07-29T08:41:03.152Z,47.76
2022-07-29T08:43:11.288Z,47.82
2022-07-29T08:45:13.704Z,46.48
2022-07-29T08:47:15.985Z,47.16
2022-07-29T08:49:19.852Z,47.29
2022-07-29T08:51:23.928Z,46.19
2022-07-29T08:53:28.180Z,46.25
2022-07-29T08:55:30.517Z,46.64
2022-07-29T08:57:34.682Z,46.94
2022-07-29T08:59:42.307Z,47.37
2022-07-29T09:01:45.813Z,46.96
2022-07-29T09:04:00.293Z,46.48
2022-07-29T09:06:03.342Z,46.82
2022-07-29T09:08:06.394Z,46.18
2022-07-29T09:10:09.483Z,45.20
2022-07-29T09:12:13.141Z,44.82
2022-07-29T09:14:31.417Z,43.53
2022-07-29T09:16:55.857Z,42.05
2022-07-29T09:18:59.951Z,41.66
2022-07-29T09:21:21.032Z,41.52
2022-07-29T09:23:24.994Z,41.37
2022-07-29T09:25:37.837Z,41.12
2022-07-29T09:27:39.750Z,41.10
2022-07-29T09:29:41.524Z,41.21
2022-07-29T09:31:46.326Z,41.26
2022-07-29T09:34:03.434Z,41.55
2022-07-29T09:36:08.070Z,40.29
2022-07-29T09:38:14.587Z,40.39
2022-07-29T09:40:29.482Z,40.54
2022-07-29T09:42:33.786Z,40.56
2022-07-29T09:44:53.654Z,40.48
2022-07-29T09:47:07.264Z,40.46
2022-07-29T09:49:13.902Z,40.04
2022-07-29T09:51:26.961Z,39.83
2022-07-29T09:53:38.307Z,39.04
2022-07-29T09:55:51.872Z,39.64
2022-07-29T09:57:54.763Z,38.63
2022-07-29T10:00:11.370Z,38.09
2022-07-29T10:02:17.749Z,38.38
2022-07-29T10:04:23.869Z,38.52
2022-07-29T10:06:25.667Z,38.12
2022-07-29T10:08:28.242Z,38.17
2022-07-29T10:10:33.130Z,37.46
2022-07-29T10:12:49.004Z,37.11
2022-07-29T10:14:51.832Z,37.08
2022-07-29T10:16:55.202Z,36.49
2022-07-29T10:18:57.511Z,35.87
2022-07-29T10:21:02.551Z,35.50
2022-07-29T10:23:05.045Z,35.09
2022-07-29T10:25:06.926Z,34.17
2022-07-29T10:27:10.249Z,33.92
2022-07-29T10:29:12.018Z,33.73
2022-07-29T10:31:27.583Z,33.42
2022-07-29T10:34:01.536Z,33.29
2022-07-29T10:36:33.827Z,33.52
2022-07-29T10:38:56.695Z,32.85
2022-07-29T10:41:23.143Z,32.73
2022-07-29T10:43:33.881Z,32.13
2022-07-29T10:45:37.537Z,31.52
2022-07-29T10:47:39.288Z,31.16
2022-07-29T10:49:57.118Z,31.48
2022-07-29T10:52:01.992Z,31.79
2022-07-29T10:54:06.682Z,32.40
2022-07-29T10:56:25.515Z,32.00
2022-07-29T10:58:27.362Z,31.49
2022-07-29T11:00:31.959Z,31.59
2022-07-29T11:02:41.523Z,31.90
2022-07-29T11:04:45.131Z,32.18
2022-07-29T11:07:03.982Z,31.61
2022-07-29T11:09:25.727Z,31.41
2022-07-29T11:11:38.001Z,31.68
2022-07-29T11:14:04.066Z,31.23
2022-07-29T11:16:07.836Z,31.03
2022-07-29T11:18:14.877Z,30.81
2022-07-29T11:20:43.481Z,30.90
2022-07-29T11:25:19.298Z,30.21
2022-07-29T11:27:41.157Z,30.55
2022-07-29T11:29:57.266Z,29.81
2022-07-29T11:32:18.243Z,30.11
2022-07-29T11:34:29.661Z,30.39
2022-07-29T11:36:31.589Z,29.52
2022-07-29T11:38:34.620Z,29.78
2022-07-29T11:40:37.054Z,29.79
2022-07-29T11:42:42.007Z,29.67
2022-07-29T11:45:40.356Z,29.95
2022-07-29T11:47:25.467Z,30.04
2022-07-29T11:49:32.224Z,29.70
2022-07-29T11:52:02.667Z,29.77
2022-07-29T11:54:05.660Z,29.66
2022-07-29T11:56:25.598Z,29.18
2022-07-29T11:58:29.553Z,28.68
2022-07-29T12:00:40.806Z,28.62
2022-07-29T12:02:44.408Z,28.47
2022-07-29T12:04:55.635Z,28.71
2022-07-29T12:07:00.451Z,28.26
2022-07-29T12:09:08.818Z,28.42
2022-07-29T12:11:22.787Z,28.58
2022-07-29T12:13:37.773Z,28.64
2022-07-29T12:15:46.107Z,28.65
2022-07-29T12:17:49.271Z,28.17
2022-07-29T12:19:51.289Z,27.91
2022-07-29T12:21:56.497Z,27.99
2022-07-29T12:24:05.973Z,27.14
2022-07-29T12:26:25.384Z,27.41
2022-07-29T12:28:28.231Z,27.22
2022-07-29T12:30:42.025Z,27.95
2022-07-29T12:32:48.559Z,27.28
2022-07-29T12:34:51.570Z,27.01
2022-07-29T12:36:53.457Z,26.49
2022-07-29T12:38:55.302Z,26.56
2022-07-29T12:40:58.797Z,26.58
2022-07-29T12:43:10.913Z,26.97
2022-07-29T12:45:12.592Z,26.22
2022-07-29T12:47:14.838Z,26.78
2022-07-29T12:49:23.890Z,26.38
2022-07-29T12:51:39.721Z,26.49
2022-07-29T12:53:41.575Z,26.06
2022-07-29T12:55:55.330Z,26.28
2022-07-29T12:57:57.040Z,26.38
2022-07-29T13:00:04.971Z,26.22
2022-07-29T13:02:07.796Z,25.99
2022-07-29T13:04:09.855Z,26.53
2022-07-29T13:06:46.185Z,26.86
2022-07-29T13:09:04.786Z,27.11
2022-07-29T13:11:06.721Z,27.56
2022-07-29T13:13:11.482Z,28.06
2022-07-29T13:15:16.043Z,28.11
2022-07-29T13:17:28.419Z,27.44
2022-07-29T13:19:43.033Z,27.54
2022-07-29T13:21:46.507Z,27.42
2022-07-29T13:23:59.845Z,27.45
2022-07-29T13:26:09.265Z,27.40
2022-07-29T13:28:12.673Z,28.07
2022-07-29T13:30:14.803Z,27.17
2022-07-29T13:32:16.705Z,26.15
2022-07-29T13:34:20.572Z,25.97
2022-07-29T13:36:22.512Z,25.67
2022-07-29T13:38:31.016Z,25.80
2022-07-29T13:40:34.917Z,26.14
2022-07-29T13:42:37.180Z,25.89
2022-07-29T13:44:39.166Z,25.55
2022-07-29T13:46:43.334Z,25.31
2022-07-29T13:48:45.082Z,26.19
2022-07-29T13:50:48.036Z,25.56
2022-07-29T13:52:51.624Z,25.82
2022-07-29T13:54:53.448Z,26.01
2022-07-29T13:56:55.402Z,26.39
2022-07-29T13:58:58.280Z,26.53
2022-07-29T14:01:00.843Z,25.58
2022-07-29T14:03:02.741Z,26.30
2022-07-29T14:05:08.259Z,26.23
2022-07-29T14:07:11.086Z,26.19
2022-07-29T14:09:18.414Z,26.13
2022-07-29T14:11:20.612Z,25.86
2022-07-29T14:13:24.867Z,25.71
2022-07-29T14:15:28.331Z,25.29
2022-07-29T14:17:30.092Z,24.52
2022-07-29T14:19:33.397Z,24.84
2022-07-29T14:21:35.796Z,24.03
2022-07-29T14:23:38.888Z,23.74
2022-07-29T14:25:44.516Z,24.00
2022-07-29T14:27:46.577Z,24.26
2022-07-29T14:29:48.707Z,23.26
2022-07-29T14:31:50.484Z,23.31
2022-07-29T14:34:02.742Z,24.08
2022-07-29T14:36:04.972Z,23.64
2022-07-29T14:38:06.723Z,23.92
2022-07-29T14:40:10.280Z,24.13
2022-07-29T14:42:13.090Z,24.39
2022-07-29T14:44:14.914Z,25.08
2022-07-29T14:46:16.703Z,25.47
2022-07-29T14:48:18.857Z,25.52
2022-07-29T14:50:23.278Z,25.40
2022-07-29T14:52:33.690Z,25.49
2022-07-29T14:54:35.430Z,25.76
2022-07-29T14:56:37.793Z,25.72
2022-07-29T14:58:51.554Z,26.09
2022-07-29T15:00:55.761Z,25.53
2022-07-29T15:03:02.209Z,25.28
2022-07-29T15:05:13.166Z,24.91
2022-07-29T15:07:15.267Z,24.47
2022-07-29T15:09:17.100Z,24.08
2022-07-29T15:11:18.898Z,24.18
2022-07-29T15:13:20.775Z,25.08
2022-07-29T15:15:22.719Z,24.23
2022-07-29T15:17:24.722Z,24.54
2022-07-29T15:19:26.843Z,24.69
2022-07-29T15:21:28.814Z,25.31
2022-07-29T15:23:30.731Z,25.92
2022-07-29T15:25:34.091Z,25.26
2022-07-29T15:27:36.057Z,25.95
2022-07-29T15:29:38.042Z,26.08
2022-07-29T15:31:40.112Z,25.77
2022-07-29T15:33:43.186Z,26.89
2022-07-29T15:35:44.897Z,26.96
2022-07-29T15:37:48.876Z,26.56
2022-07-29T15:39:51.548Z,27.13
2022-07-29T15:41:56.346Z,27.17
2022-07-29T15:44:03.927Z,26.91
2022-07-29T15:46:24.539Z,27.06
2022-07-29T15:48:27.008Z,27.25
2022-07-29T15:50:28.780Z,26.97
2022-07-29T15:52:31.246Z,27.88
2022-07-29T15:54:35.019Z,27.88
2022-07-29T15:56:37.418Z,27.44
2022-07-29T15:58:39.384Z,27.63
2022-07-29T16:00:41.401Z,27.38
2022-07-29T16:02:43.364Z,27.27
2022-07-29T16:04:45.182Z,27.16
2022-07-29T16:06:48.415Z,27.71
2022-07-29T16:08:50.254Z,27.79
2022-07-29T16:10:52.792Z,28.13
2022-07-29T16:12:54.618Z,27.72
2022-07-29T16:14:57.295Z,27.71
2022-07-29T16:17:02.252Z,28.06
2022-07-29T16:19:05.119Z,28.35
2022-07-29T16:21:06.815Z,28.44
2022-07-29T16:23:12.408Z,28.37
2022-07-29T16:25:14.426Z,28.98
2022-07-29T16:27:16.760Z,28.47
2022-07-29T16:29:19.459Z,28.97
2022-07-29T16:31:23.195Z,29.30
2022-07-29T16:33:25.398Z,28.24
2022-07-29T16:35:39.769Z,29.17
2022-07-29T16:37:42.500Z,28.94
2022-07-29T16:39:44.838Z,28.46
2022-07-29T16:41:47.042Z,28.24
2022-07-29T16:44:05.497Z,27.91
2022-07-29T16:46:12.495Z,28.39
2022-07-29T16:48:20.600Z,29.48
2022-07-29T16:50:22.458Z,28.61
2022-07-29T16:52:24.819Z,28.43
2022-07-29T16:54:31.047Z,27.95
2022-07-29T16:56:33.572Z,27.98
2022-07-29T16:58:43.322Z,28.39
2022-07-29T17:01:12.971Z,28.22
2022-07-29T17:03:15.878Z,28.80
2022-07-29T17:05:18.698Z,28.90
2022-07-29T17:07:22.297Z,28.63
2022-07-29T17:09:24.507Z,28.98
2022-07-29T17:11:53.961Z,28.26
2022-07-29T17:14:00.316Z,28.22
2022-07-29T17:16:02.341Z,28.60
2022-07-29T17:18:12.199Z,28.21
2022-07-29T17:20:14.909Z,28.43
2022-07-29T17:22:20.151Z,28.71
2022-07-29T17:24:22.002Z,29.06
2022-07-29T17:26:28.345Z,29.08
2022-07-29T17:28:30.290Z,28.95
2022-07-29T17:30:32.358Z,29.45
2022-07-29T17:32:38.644Z,28.82
2022-07-29T17:34:42.799Z,28.75
2022-07-29T17:36:44.936Z,28.91
2022-07-29T17:38:46.771Z,29.05
2022-07-29T17:40:49.342Z,28.93
2022-07-29T17:42:51.590Z,29.40
2022-07-29T17:44:53.312Z,30.37
2022-07-29T17:46:55.223Z,29.90
2022-07-29T17:48:57.672Z,29.33
2022-07-29T17:50:59.514Z,29.34
2022-07-29T17:53:02.456Z,29.62
2022-07-29T17:55:13.412Z,29.28
2022-07-29T17:57:15.309Z,28.85
2022-07-29T17:59:17.269Z,29.70
2022-07-29T18:01:19.520Z,30.23
2022-07-29T18:03:21.939Z,29.84
2022-07-29T18:05:23.840Z,29.75
2022-07-29T18:07:25.735Z,29.26
2022-07-29T18:09:27.618Z,31.29
2022-07-29T18:11:31.870Z,32.05
2022-07-29T18:13:33.933Z,33.60
2022-07-29T18:15:36.162Z,34.39
2022-07-29T18:17:56.803Z,34.87
2022-07-29T18:19:59.600Z,35.65
2022-07-29T18:22:05.361Z,36.07
2022-07-29T18:24:07.885Z,36.33
2022-07-29T18:26:10.562Z,36.37
2022-07-29T18:28:12.873Z,36.61
2022-07-29T18:30:17.341Z,36.80
2022-07-29T18:32:19.701Z,37.00
2022-07-29T18:34:31.094Z,36.99
2022-07-29T18:36:32.783Z,37.28
2022-07-29T18:38:34.777Z,37.24
2022-07-29T18:40:38.788Z,37.73
2022-07-29T18:42:43.733Z,37.63
2022-07-29T18:44:49.027Z,38.34
2022-07-29T18:46:52.841Z,38.62
2022-07-29T18:48:57.399Z,38.40
2022-07-29T18:50:59.175Z,38.74
2022-07-29T18:53:02.258Z,38.79
2022-07-29T18:55:04.385Z,39.16
2022-07-29T18:57:56.343Z,39.25
2022-07-29T18:59:28.093Z,39.50
2022-07-29T19:01:31.687Z,39.58
2022-07-29T19:03:34.460Z,39.67
2022-07-29T19:05:36.322Z,39.62
2022-07-29T19:07:39.486Z,39.85
2022-07-29T19:09:49.602Z,39.98
2022-07-29T19:11:55.731Z,39.98
2022-07-29T19:13:58.168Z,40.17
2022-07-29T19:16:00.007Z,40.24
2022-07-29T19:18:01.787Z,40.29
2022-07-29T19:20:03.872Z,40.35
2022-07-29T19:22:06.684Z,40.35
2022-07-29T19:24:13.592Z,40.45
2022-07-29T19:26:20.328Z,40.68
2022-07-29T19:28:23.738Z,40.55
2022-07-29T19:30:26.576Z,40.74
2022-07-29T19:32:31.105Z,40.73
2022-07-29T19:34:34.113Z,41.19
2022-07-29T19:36:37.284Z,41.38
2022-07-29T19:38:40.911Z,41.22
2022-07-29T19:40:43.964Z,41.54
2022-07-29T19:42:48.818Z,41.62
2022-07-29T19:44:52.004Z,41.68
2022-07-29T19:46:54.687Z,41.71
2022-07-29T19:48:57.849Z,41.53
2022-07-29T19:51:00.422Z,41.89
2022-07-29T19:53:03.186Z,42.00
2022-07-29T19:55:07.805Z,42.05
2022-07-29T19:57:09.895Z,42.13
2022-07-29T19:59:11.898Z,42.11
2022-07-29T20:01:14.148Z,42.43
2022-07-29T20:03:15.913Z,42.37
2022-07-29T20:05:18.465Z,42.38
2022-07-29T20:07:20.358Z,42.79
2022-07-29T20:09:22.064Z,42.58
2022-07-29T20:11:24.016Z,42.71
2022-07-29T20:13:25.910Z,42.87
2022-07-29T20:15:27.651Z,42.86
2022-07-29T20:17:29.434Z,43.05
2022-07-29T20:19:32.373Z,43.08
2022-07-29T20:21:34.105Z,43.19
2022-07-29T20:23:36.063Z,42.98
2022-07-29T20:25:38.509Z,43.03
2022-07-29T20:27:40.723Z,42.74
2022-07-29T20:29:42.574Z,42.96
2022-07-29T20:31:45.706Z,43.19
2022-07-29T20:33:55.068Z,43.02
2022-07-29T20:35:56.798Z,42.89
2022-07-29T20:37:59.866Z,43.42
2022-07-29T20:40:03.006Z,43.46
2022-07-29T20:42:05.198Z,43.37
2022-07-29T20:44:07.258Z,43.38
2022-07-29T20:46:10.112Z,43.50
2022-07-29T20:48:13.625Z,43.34
2022-07-29T20:50:15.594Z,42.48
2022-07-29T20:52:19.585Z,42.38
2022-07-29T20:54:21.341Z,42.39
2022-07-29T20:56:23.207Z,42.13
2022-07-29T20:58:25.148Z,42.32
2022-07-29T21:00:27.081Z,42.23
2022-07-29T21:02:28.904Z,42.17
2022-07-29T21:04:32.667Z,42.18
2022-07-29T21:06:35.115Z,42.14
2022-07-29T21:08:37.559Z,42.04
2022-07-29T21:10:39.442Z,42.15
2022-07-29T21:12:42.139Z,42.11
2022-07-29T21:14:48.103Z,42.01
2022-07-29T21:16:50.455Z,42.22
2022-07-29T21:18:53.385Z,42.33
2022-07-29T21:20:55.429Z,42.25
2022-07-29T21:22:58.132Z,42.34
2022-07-29T21:25:00.212Z,42.51
2022-07-29T21:27:21.745Z,42.66
2022-07-29T21:29:23.775Z,42.57
2022-07-29T21:31:27.120Z,42.56
2022-07-29T21:33:30.360Z,42.08
2022-07-29T21:36:14.937Z,42.05
2022-07-29T21:37:53.968Z,41.98
2022-07-29T21:39:55.747Z,42.23
2022-07-29T21:41:57.713Z,41.65
2022-07-29T21:43:59.623Z,41.61
2022-07-29T21:46:03.308Z,41.72
2022-07-29T21:48:06.487Z,41.77
2022-07-29T21:50:09.988Z,41.81
2022-07-29T21:52:11.770Z,41.34
2022-07-29T21:54:14.380Z,41.56
2022-07-29T21:56:16.103Z,41.46
2022-07-29T21:58:21.331Z,41.69
2022-07-29T22:00:25.640Z,41.78
2022-07-29T22:02:27.538Z,41.74
2022-07-29T22:04:30.456Z,41.65
2022-07-29T22:06:34.609Z,41.62
2022-07-29T22:08:36.619Z,41.36
2022-07-29T22:10:38.552Z,41.71
2022-07-29T22:12:40.298Z,41.65
2022-07-29T22:14:42.237Z,41.80
2022-07-29T22:16:45.655Z,41.63
2022-07-29T22:18:48.434Z,41.76
2022-07-29T22:20:50.424Z,41.54
2022-07-29T22:22:53.074Z,41.87
2022-07-29T22:24:55.890Z,41.76
2022-07-29T22:26:58.075Z,42.15
2022-07-29T22:29:00.238Z,42.09
2022-07-29T22:31:02.129Z,42.53
2022-07-29T22:33:04.047Z,42.77
2022-07-29T22:35:06.211Z,42.79
2022-07-29T22:37:08.246Z,42.97
2022-07-29T22:39:09.981Z,43.33
2022-07-29T22:41:11.820Z,43.30
2022-07-29T22:43:17.490Z,43.51
2022-07-29T22:45:19.260Z,43.62
2022-07-29T22:47:38.709Z,43.84
2022-07-29T22:49:42.981Z,44.03
2022-07-29T22:51:44.686Z,43.97
2022-07-29T22:53:53.484Z,44.30
2022-07-29T22:55:55.257Z,44.39
2022-07-29T22:57:57.030Z,44.60
2022-07-29T23:00:01.709Z,45.17
2022-07-29T23:02:03.656Z,45.28
2022-07-29T23:04:06.388Z,45.53
2022-07-29T23:06:08.326Z,46.09
2022-07-29T23:08:10.063Z,46.42
2022-07-29T23:10:11.992Z,46.44
2022-07-29T23:12:13.856Z,46.68
2022-07-29T23:14:15.648Z,47.02
2022-07-29T23:16:26.601Z,46.78
2022-07-29T23:18:28.838Z,47.04
2022-07-29T23:20:30.560Z,46.90
2022-07-29T23:22:32.308Z,46.82
2022-07-29T23:24:34.121Z,46.97
2022-07-29T23:26:36.990Z,46.80
2022-07-29T23:28:38.735Z,46.85
2022-07-29T23:30:41.550Z,46.47
2022-07-29T23:32:43.314Z,46.64
2022-07-29T23:34:45.043Z,46.43
2022-07-29T23:36:46.876Z,46.29
2022-07-29T23:38:49.009Z,46.45
2022-07-29T23:40:51.214Z,46.34
2022-07-29T23:42:53.103Z,46.32
2022-07-29T23:44:54.862Z,46.33
2022-07-29T23:46:56.616Z,45.94
2022-07-29T23:48:58.452Z,45.81
2022-07-29T23:51:01.235Z,45.97
2022-07-29T23:53:02.980Z,45.83
2022-07-29T23:55:37.637Z,45.72
2022-07-29T23:57:27.540Z,45.74
2022-07-29T23:59:29.257Z,45.40
